Time;durP1;ratioP1;P1;durP2;ratioP2;P2;SDS_P1;SDS_P2;PMS_P1;PMS_P2;Temp;Humidity;BMP_temperature;BMP_pressure;BME280_temperature;BME280_humidity;BME280_pressure;Samples;Min_cycle;Max_cycle;Signal;HPM_P1;HPM_P2
2022/06/16 00:00:30;;;;;;;8.93;5.50;;;20.50;99.90;;;;;;4920226;29;20211;-69
2022/06/16 00:02:57;;;;;;;9.32;5.32;;;20.40;99.90;;;;;;4934017;29;20229;-70
2022/06/16 00:05:27;;;;;;;8.63;5.75;;;20.40;99.90;;;;;;4928702;29;20198;-72
2022/06/16 00:07:55;;;;;;;8.20;5.20;;;20.30;99.90;;;;;;4928517;28;20626;-72
2022/06/16 00:10:23;;;;;;;10.10;5.50;;;20.20;99.90;;;;;;4922103;29;20716;-71
2022/06/16 00:12:50;;;;;;;7.23;4.80;;;20.10;99.90;;;;;;4923634;29;20230;-72
2022/06/16 00:15:20;;;;;;;6.10;5.03;;;20.10;99.90;;;;;;4927430;29;20202;-71
2022/06/16 00:17:46;;;;;;;7.83;5.07;;;20.10;99.90;;;;;;4927534;29;20207;-72
2022/06/16 00:20:13;;;;;;;6.27;4.77;;;20.20;99.90;;;;;;4926051;29;20199;-71
2022/06/16 00:22:40;;;;;;;7.80;4.97;;;20.20;99.90;;;;;;4884468;29;1063885;-71
2022/06/16 00:25:07;;;;;;;6.17;5.00;;;20.20;99.90;;;;;;4927773;29;20199;-72
2022/06/16 00:27:35;;;;;;;5.47;4.47;;;20.10;99.90;;;;;;4929731;29;20195;-71
2022/06/16 00:30:02;;;;;;;8.23;5.73;;;19.90;99.90;;;;;;4929410;29;20667;-71
2022/06/16 00:32:29;;;;;;;7.53;5.20;;;19.80;99.90;;;;;;4930045;29;20223;-71
2022/06/16 00:34:57;;;;;;;5.47;4.53;;;19.70;99.90;;;;;;4922001;29;20226;-71
2022/06/16 00:37:24;;;;;;;5.73;4.57;;;19.60;99.90;;;;;;4929979;29;20243;-71
2022/06/16 00:39:50;;;;;;;7.03;4.10;;;19.50;99.90;;;;;;4918949;29;20676;-72
2022/06/16 00:42:24;;;;;;;7.87;4.57;;;19.40;99.90;;;;;;4937842;29;20679;-70
2022/06/16 00:44:53;;;;;;;7.03;4.40;;;19.40;99.90;;;;;;4934366;29;20194;-71
2022/06/16 00:47:22;;;;;;;6.27;4.53;;;19.40;99.90;;;;;;4920846;29;20203;-71
2022/06/16 00:49:51;;;;;;;8.20;4.73;;;19.60;99.90;;;;;;4920054;29;20199;-71
2022/06/16 00:52:22;;;;;;;8.23;4.13;;;19.80;99.90;;;;;;4932119;29;20576;-69
2022/06/16 00:55:00;;;;;;;6.93;4.20;;;19.80;99.90;;;;;;4934100;29;20206;-71
2022/06/16 00:57:33;;;;;;;6.53;4.33;;;19.60;99.90;;;;;;4931675;29;20203;-71
2022/06/16 01:00:04;;;;;;;5.67;4.57;;;19.40;99.90;;;;;;4923467;29;20250;-72
2022/06/16 01:02:31;;;;;;;8.27;5.00;;;19.30;99.90;;;;;;4911081;29;20219;-71
2022/06/16 01:04:58;;;;;;;5.80;4.40;;;19.30;99.90;;;;;;4911419;29;20203;-71
2022/06/16 01:07:30;;;;;;;5.40;4.40;;;19.30;99.90;;;;;;4933994;29;20199;-69
2022/06/16 01:09:59;;;;;;;6.33;4.30;;;19.20;99.90;;;;;;4927544;29;20699;-71
2022/06/16 01:15:23;;;;;;;5.20;4.10;;;19.00;99.90;;;;;;4919782;29;20206;-71
2022/06/16 01:18:08;;;;;;;5.77;3.93;;;18.90;99.90;;;;;;4921835;28;20215;-72
2022/06/16 01:20:50;;;;;;;7.17;4.40;;;18.80;99.90;;;;;;4918749;29;20215;-71
2022/06/16 01:23:42;;;;;;;6.43;4.10;;;18.80;99.90;;;;;;4921240;29;20223;-71
2022/06/16 01:26:36;;;;;;;7.17;4.50;;;18.80;99.90;;;;;;4917567;29;20204;-70
2022/06/16 01:29:21;;;;;;;6.00;4.23;;;18.80;99.90;;;;;;4930935;29;20191;-72
2022/06/16 01:32:12;;;;;;;4.90;4.00;;;18.80;99.90;;;;;;4925380;29;20657;-71
2022/06/16 01:34:57;;;;;;;6.37;4.10;;;18.80;99.90;;;;;;4923245;29;20649;-71
2022/06/16 01:37:53;;;;;;;8.13;4.00;;;18.70;99.90;;;;;;4924198;29;20210;-71
2022/06/16 01:40:31;;;;;;;5.53;4.23;;;18.70;99.90;;;;;;4925723;29;20234;-71
2022/06/16 01:43:08;;;;;;;5.23;4.20;;;18.70;99.90;;;;;;4937459;29;20256;-71
2022/06/16 01:45:55;;;;;;;5.63;5.00;;;18.70;99.90;;;;;;4930216;28;20194;-71
2022/06/16 01:48:23;;;;;;;5.60;4.30;;;18.70;99.90;;;;;;4935508;28;20202;-71
2022/06/16 01:50:55;;;;;;;5.60;4.37;;;18.60;99.90;;;;;;4926070;29;20222;-71
2022/06/16 01:53:47;;;;;;;6.00;4.10;;;18.60;99.90;;;;;;4933906;29;20592;-72
2022/06/16 01:56:34;;;;;;;6.53;4.50;;;18.60;99.90;;;;;;4915675;29;20658;-71
2022/06/16 01:59:14;;;;;;;5.93;4.23;;;18.50;99.90;;;;;;4923203;29;20231;-71
2022/06/16 02:01:46;;;;;;;6.00;4.23;;;18.60;99.90;;;;;;4927640;29;20286;-71
2022/06/16 02:04:33;;;;;;;5.73;4.60;;;18.60;99.90;;;;;;4941157;29;20195;-71
2022/06/16 02:07:05;;;;;;;6.43;4.47;;;18.60;99.90;;;;;;4925704;29;20203;-70
2022/06/16 02:09:39;;;;;;;5.50;4.53;;;18.70;99.90;;;;;;4929120;29;20199;-71
2022/06/16 02:12:11;;;;;;;6.03;4.90;;;18.70;99.90;;;;;;4927325;29;20219;-71
2022/06/16 02:14:45;;;;;;;9.57;5.13;;;18.70;99.90;;;;;;4933445;29;20195;-71
2022/06/16 02:17:12;;;;;;;6.97;4.80;;;18.60;99.90;;;;;;4930632;29;20203;-71
2022/06/16 02:19:39;;;;;;;6.03;4.80;;;18.70;99.90;;;;;;4930774;29;20668;-71
2022/06/16 02:22:06;;;;;;;6.97;4.90;;;18.70;99.90;;;;;;4926446;29;20230;-71
2022/06/16 02:24:33;;;;;;;6.40;4.87;;;18.70;99.90;;;;;;4926934;29;20716;-70
2022/06/16 02:27:00;;;;;;;6.83;4.53;;;18.70;99.90;;;;;;4941625;29;20686;-70
2022/06/16 02:29:36;;;;;;;5.10;4.53;;;18.60;99.90;;;;;;4926321;29;20200;-71
2022/06/16 02:32:18;;;;;;;6.90;4.83;;;18.60;99.90;;;;;;4937868;29;20224;-72
2022/06/16 02:35:12;;;;;;;6.93;4.90;;;18.50;99.90;;;;;;4925349;29;20203;-72
2022/06/16 02:37:43;;;;;;;6.63;4.50;;;18.40;99.90;;;;;;4927384;29;20583;-71
2022/06/16 02:40:43;;;;;;;6.80;4.73;;;18.40;99.90;;;;;;4930051;29;20210;-69
2022/06/16 02:43:33;;;;;;;8.53;5.30;;;18.40;99.90;;;;;;4925709;29;20229;-71
2022/06/16 02:46:13;;;;;;;6.17;4.50;;;18.30;99.90;;;;;;4936652;29;20293;-71
2022/06/16 02:48:50;;;;;;;7.10;4.90;;;18.20;99.90;;;;;;4928302;29;20201;-71
2022/06/16 02:51:45;;;;;;;7.37;4.63;;;18.20;99.90;;;;;;4933605;29;20250;-71
2022/06/16 02:54:31;;;;;;;4.90;4.30;;;18.20;99.90;;;;;;4927226;29;20216;-72
2022/06/16 02:57:24;;;;;;;7.93;5.20;;;18.30;99.90;;;;;;4927918;29;20195;-71
2022/06/16 02:59:55;;;;;;;7.33;4.80;;;18.30;99.90;;;;;;4930668;28;20225;-70
2022/06/16 03:02:24;;;;;;;6.00;4.97;;;18.30;99.90;;;;;;4935108;29;20273;-71
2022/06/16 03:04:53;;;;;;;6.97;4.83;;;18.20;99.90;;;;;;4931353;29;20262;-71
2022/06/16 03:07:21;;;;;;;6.47;4.63;;;18.20;99.90;;;;;;4938300;29;20218;-71
2022/06/16 03:09:47;;;;;;;6.50;4.93;;;18.20;99.90;;;;;;4923420;29;20636;-71
2022/06/16 03:12:15;;;;;;;8.10;5.90;;;18.10;99.90;;;;;;4935647;29;20710;-71
2022/06/16 03:14:42;;;;;;;9.30;5.20;;;18.20;99.90;;;;;;4930916;29;20203;-71
2022/06/16 03:17:11;;;;;;;6.03;5.17;;;18.30;99.90;;;;;;4930690;29;20234;-72
2022/06/16 03:19:37;;;;;;;6.13;5.20;;;18.30;99.90;;;;;;4935847;29;20556;-71
2022/06/16 03:22:05;;;;;;;7.73;5.23;;;18.30;99.90;;;;;;4932849;29;20231;-72
2022/06/16 03:24:32;;;;;;;7.13;5.20;;;18.20;99.90;;;;;;4928518;29;20195;-69
2022/06/16 03:26:59;;;;;;;7.03;5.33;;;18.20;99.90;;;;;;4925774;29;20199;-71
2022/06/16 03:29:26;;;;;;;8.60;5.40;;;18.20;99.90;;;;;;4936592;29;20199;-71
2022/06/16 03:31:53;;;;;;;8.00;5.37;;;18.20;99.90;;;;;;4933561;29;20227;-71
2022/06/16 03:34:20;;;;;;;6.57;4.70;;;18.40;99.90;;;;;;4934758;28;20686;-71
2022/06/16 03:36:47;;;;;;;8.43;4.60;;;18.50;99.90;;;;;;4924228;29;20229;-71
2022/06/16 03:39:14;;;;;;;8.27;4.87;;;18.60;99.90;;;;;;4936675;29;20202;-71
2022/06/16 03:41:41;;;;;;;6.20;3.80;;;18.80;99.90;;;;;;4923728;29;20224;-71
2022/06/16 03:44:08;;;;;;;4.50;3.67;;;19.00;99.90;;;;;;4931412;29;20219;-71
2022/06/16 03:46:34;;;;;;;6.60;3.73;;;19.00;99.90;;;;;;4927984;29;20227;-71
2022/06/16 03:49:03;;;;;;;4.87;4.00;;;19.00;99.90;;;;;;4960740;28;20201;-71
2022/06/16 03:51:30;;;;;;;5.73;3.70;;;19.00;99.90;;;;;;4935429;29;20242;-71
2022/06/16 03:53:57;;;;;;;4.50;3.60;;;18.90;99.90;;;;;;4927541;29;20199;-71
2022/06/16 03:56:24;;;;;;;4.67;3.90;;;18.90;99.90;;;;;;4932336;29;20214;-71
2022/06/16 03:58:56;;;;;;;5.03;3.80;;;18.90;99.90;;;;;;4928893;29;20207;-71
2022/06/16 04:01:23;;;;;;;4.90;3.63;;;18.90;99.90;;;;;;4931502;29;20834;-71
2022/06/16 04:03:59;;;;;;;5.70;3.97;;;19.00;99.90;;;;;;4927530;29;20227;-71
2022/06/16 04:06:28;;;;;;;5.97;4.00;;;19.00;99.90;;;;;;4932000;29;20205;-71
2022/06/16 04:08:55;;;;;;;4.80;3.67;;;19.00;99.90;;;;;;4929231;29;20195;-71
2022/06/16 04:11:28;;;;;;;5.80;4.20;;;18.90;99.90;;;;;;4920055;29;20235;-72
2022/06/16 04:14:00;;;;;;;4.43;3.50;;;19.00;99.90;;;;;;4926727;29;20199;-71
2022/06/16 04:16:33;;;;;;;5.30;3.80;;;19.10;99.90;;;;;;4933590;29;20236;-71
2022/06/16 04:19:00;;;;;;;5.87;3.90;;;19.40;99.90;;;;;;4925901;29;20675;-70
2022/06/16 04:21:27;;;;;;;4.77;3.70;;;19.40;99.90;;;;;;4930230;29;20708;-70
2022/06/16 04:23:54;;;;;;;5.07;3.47;;;19.40;99.90;;;;;;4927982;29;20235;-71
2022/06/16 04:26:21;;;;;;;8.50;3.73;;;19.50;99.90;;;;;;4921975;29;20211;-71
2022/06/16 04:28:48;;;;;;;5.80;3.70;;;19.60;99.90;;;;;;4927373;29;20211;-71
2022/06/16 04:31:16;;;;;;;6.20;3.50;;;19.90;99.90;;;;;;4936885;29;20214;-71
2022/06/16 04:33:43;;;;;;;4.57;3.77;;;20.10;99.90;;;;;;4926661;29;20206;-71
2022/06/16 04:36:13;;;;;;;6.73;3.20;;;20.20;99.90;;;;;;4926201;29;20686;-71
2022/06/16 04:38:40;;;;;;;3.33;3.03;;;20.40;99.90;;;;;;4924046;29;20727;-70
2022/06/16 04:41:07;;;;;;;4.10;3.13;;;20.50;99.90;;;;;;4934251;28;20222;-71
2022/06/16 04:43:34;;;;;;;4.07;2.90;;;20.50;99.90;;;;;;4922408;29;20720;-69
2022/06/16 04:46:03;;;;;;;3.20;2.90;;;20.60;99.90;;;;;;4929814;29;20232;-71
2022/06/16 04:48:30;;;;;;;3.97;3.53;;;20.70;99.90;;;;;;4932125;28;20281;-71
2022/06/16 04:50:58;;;;;;;5.93;4.20;;;20.80;99.90;;;;;;4935298;29;20233;-71
2022/06/16 04:53:24;;;;;;;6.43;3.92;;;20.90;99.90;;;;;;4921931;29;20206;-72
2022/06/16 04:55:56;;;;;;;5.75;3.58;;;21.00;99.90;;;;;;4930620;29;20199;-71
2022/06/16 04:58:24;;;;;;;5.13;3.42;;;21.00;99.90;;;;;;4928826;29;20200;-71
2022/06/16 05:00:53;;;;;;;5.68;3.72;;;21.10;99.90;;;;;;4928420;29;20231;-71
2022/06/16 05:03:39;;;;;;;4.55;3.53;;;21.20;99.90;;;;;;4929874;29;20218;-71
2022/06/16 05:06:06;;;;;;;4.40;3.15;;;21.30;99.90;;;;;;4931802;29;20660;-71
2022/06/16 05:08:33;;;;;;;3.67;3.30;;;21.20;99.90;;;;;;4930901;29;20198;-71
2022/06/16 05:10:59;;;;;;;4.50;3.17;;;21.30;99.90;;;;;;4930256;29;20314;-71
2022/06/16 05:13:26;;;;;;;4.22;3.20;;;21.50;99.90;;;;;;4934322;29;20217;-71
2022/06/16 05:15:54;;;;;;;3.92;3.42;;;21.50;99.90;;;;;;4928924;28;20213;-71
2022/06/16 05:18:21;;;;;;;3.03;2.72;;;21.70;99.90;;;;;;4922537;28;20199;-71
2022/06/16 05:20:47;;;;;;;5.20;3.58;;;22.00;99.90;;;;;;4925428;29;20234;-71
2022/06/16 05:23:14;;;;;;;3.97;3.30;;;22.20;99.90;;;;;;4927060;29;20223;-71
2022/06/16 05:25:41;;;;;;;4.38;3.60;;;22.30;99.90;;;;;;4933904;29;20203;-71
2022/06/16 05:28:10;;;;;;;5.40;3.38;;;22.30;99.90;;;;;;4931657;29;20198;-71
2022/06/16 05:30:37;;;;;;;3.67;2.97;;;22.40;99.90;;;;;;4935863;29;20202;-72
2022/06/16 05:33:04;;;;;;;4.95;3.47;;;22.40;99.90;;;;;;4928959;28;20209;-71
2022/06/16 05:35:31;;;;;;;5.15;3.20;;;22.50;99.90;;;;;;4952811;28;20698;-73
2022/06/16 05:37:57;;;;;;;11.60;3.35;;;22.60;99.90;;;;;;4931841;28;20206;-73
2022/06/16 05:40:25;;;;;;;4.18;3.00;;;22.50;99.90;;;;;;4931304;29;20217;-73
2022/06/16 05:42:51;;;;;;;5.43;3.05;;;22.40;99.90;;;;;;4932568;29;20229;-73
2022/06/16 05:45:18;;;;;;;4.22;3.20;;;22.30;99.90;;;;;;4934494;29;20195;-72
2022/06/16 05:47:45;;;;;;;3.40;2.97;;;22.40;99.90;;;;;;4935413;29;20190;-73
2022/06/16 05:50:15;;;;;;;4.15;3.25;;;22.40;99.90;;;;;;4935083;29;20203;-73
2022/06/16 05:52:42;;;;;;;6.63;3.30;;;22.50;99.90;;;;;;4943760;28;20241;-72
2022/06/16 05:55:12;;;;;;;3.80;3.10;;;22.50;99.90;;;;;;4931300;29;20199;-74
2022/06/16 05:57:38;;;;;;;3.78;2.92;;;22.60;99.90;;;;;;4934833;29;20689;-73
2022/06/16 06:00:06;;;;;;;4.38;3.25;;;22.90;99.90;;;;;;4933790;29;20811;-73
2022/06/16 06:02:33;;;;;;;5.15;3.40;;;23.00;99.90;;;;;;4927790;29;20653;-73
2022/06/16 06:05:00;;;;;;;3.20;2.90;;;23.20;99.90;;;;;;4940626;29;20191;-73
2022/06/16 06:16:25;;;;;;;4.75;3.30;;;23.30;99.90;;;;;;4942080;29;20215;-73
2022/06/16 06:18:34;;;;;;;6.38;3.15;;;23.60;99.90;;;;;;4934753;29;20227;-74
2022/06/16 06:21:00;;;;;;;4.65;3.25;;;23.80;99.90;;;;;;4922178;29;20226;-74
2022/06/16 06:23:27;;;;;;;4.93;3.10;;;24.00;99.90;;;;;;4934604;29;20226;-73
2022/06/16 06:25:54;;;;;;;4.07;2.80;;;23.80;99.90;;;;;;4935082;28;20203;-74
2022/06/16 06:28:22;;;;;;;5.68;3.30;;;23.80;99.90;;;;;;4934977;29;20675;-73
2022/06/16 06:30:49;;;;;;;3.60;3.13;;;23.70;99.90;;;;;;4932008;28;20357;-73
2022/06/16 06:33:16;;;;;;;3.78;2.60;;;23.60;99.90;;;;;;4934585;29;20198;-73
2022/06/16 06:35:43;;;;;;;4.45;3.10;;;23.50;99.90;;;;;;4935814;29;20258;-73
2022/06/16 06:38:09;;;;;;;4.90;2.97;;;23.50;99.90;;;;;;4933238;29;20567;-73
2022/06/16 06:40:37;;;;;;;4.00;3.35;;;23.50;99.90;;;;;;4940149;29;20262;-73
2022/06/16 06:43:04;;;;;;;7.18;3.65;;;23.50;99.90;;;;;;4934417;29;20222;-73
2022/06/16 06:45:31;;;;;;;4.47;3.40;;;23.40;99.90;;;;;;4939181;29;20288;-73
2022/06/16 06:47:58;;;;;;;6.80;3.47;;;23.40;99.90;;;;;;4937096;29;20792;-74
2022/06/16 06:50:31;;;;;;;4.05;3.35;;;23.50;99.90;;;;;;4932653;29;20206;-72
2022/06/16 06:52:58;;;;;;;4.57;3.38;;;23.40;99.90;;;;;;4935519;29;20206;-74
2022/06/16 06:55:25;;;;;;;6.18;3.45;;;23.50;99.90;;;;;;4929019;29;20687;-72
2022/06/16 06:57:53;;;;;;;6.07;3.88;;;23.60;99.90;;;;;;4935072;29;20253;-74
2022/06/16 07:00:22;;;;;;;6.32;3.90;;;23.70;99.90;;;;;;4933239;29;20663;-73
2022/06/16 07:02:49;;;;;;;4.38;3.58;;;23.70;99.90;;;;;;4939374;29;20206;-74
2022/06/16 07:05:16;;;;;;;4.45;3.60;;;24.00;99.90;;;;;;4929082;29;20230;-74
2022/06/16 07:07:45;;;;;;;5.03;3.30;;;24.40;99.90;;;;;;4938762;29;20273;-74
2022/06/16 07:10:13;;;;;;;3.47;3.17;;;24.70;99.90;;;;;;4933156;29;20206;-73
2022/06/16 07:12:39;;;;;;;5.07;3.30;;;25.40;99.90;;;;;;4940710;29;20215;-74
2022/06/16 07:15:06;;;;;;;8.65;3.42;;;25.80;99.90;;;;;;4932268;29;20206;-71
2022/06/16 07:17:33;;;;;;;4.85;3.38;;;26.20;99.90;;;;;;4933155;29;20202;-74
2022/06/16 07:20:00;;;;;;;6.38;3.10;;;26.80;99.90;;;;;;4933796;29;20199;-74
2022/06/16 07:22:27;;;;;;;5.25;3.50;;;26.90;99.90;;;;;;4937019;29;20702;-73
2022/06/16 07:24:53;;;;;;;7.35;3.47;;;26.60;99.90;;;;;;4931305;29;20218;-74
2022/06/16 07:27:21;;;;;;;5.63;3.80;;;26.50;99.90;;;;;;4933887;29;20207;-74
2022/06/16 07:29:49;;;;;;;5.90;3.70;;;26.30;99.90;;;;;;4931687;29;20207;-75
2022/06/16 07:32:20;;;;;;;3.70;3.17;;;26.40;99.90;;;;;;4934242;29;20215;-75
2022/06/16 07:34:48;;;;;;;3.95;2.88;;;26.50;99.90;;;;;;4940453;29;20214;-74
2022/06/16 07:37:15;;;;;;;8.25;3.30;;;26.50;99.90;;;;;;4934784;29;20199;-74
2022/06/16 07:39:42;;;;;;;3.42;2.90;;;26.60;99.90;;;;;;4935988;28;20219;-74
2022/06/16 07:42:09;;;;;;;4.57;3.45;;;26.50;99.90;;;;;;4928108;29;20222;-74
2022/06/16 07:44:37;;;;;;;5.03;3.20;;;25.90;99.90;;;;;;4931642;29;20219;-72
2022/06/16 07:47:05;;;;;;;6.75;3.40;;;26.00;99.90;;;;;;4930920;29;20203;-74
2022/06/16 07:49:32;;;;;;;5.70;3.58;;;25.80;99.90;;;;;;4938054;29;20649;-74
2022/06/16 07:51:59;;;;;;;6.20;3.13;;;25.70;99.90;;;;;;4928578;28;20238;-75
2022/06/16 07:54:27;;;;;;;5.63;3.50;;;25.50;99.90;;;;;;4928960;29;20198;-74
2022/06/16 07:57:14;;;;;;;4.13;3.20;;;25.70;99.90;;;;;;4933348;29;20203;-74
2022/06/16 07:59:54;;;;;;;4.30;3.20;;;26.10;99.90;;;;;;4926333;29;20289;-75
2022/06/16 08:02:20;;;;;;;4.80;3.65;;;26.30;99.90;;;;;;4929777;29;20229;-74
2022/06/16 08:04:48;;;;;;;6.43;3.20;;;26.30;99.90;;;;;;4929551;29;20222;-74
2022/06/16 08:07:14;;;;;;;6.32;3.47;;;26.30;99.90;;;;;;4932672;29;20678;-75
2022/06/16 08:09:41;;;;;;;4.03;3.55;;;26.20;99.90;;;;;;4932458;29;20254;-75
2022/06/16 08:12:10;;;;;;;6.13;3.50;;;26.00;99.90;;;;;;4929186;29;20215;-75
2022/06/16 08:14:41;;;;;;;5.43;3.30;;;25.80;99.90;;;;;;4929103;29;20206;-75
2022/06/16 08:17:21;;;;;;;5.45;3.30;;;25.60;99.90;;;;;;4926066;29;20206;-75
2022/06/16 08:19:48;;;;;;;5.60;3.47;;;25.70;99.90;;;;;;4931184;29;20269;-74
2022/06/16 08:22:15;;;;;;;9.25;3.70;;;25.90;99.90;;;;;;4931829;29;20311;-75
2022/06/16 08:24:43;;;;;;;4.28;3.63;;;26.00;99.90;;;;;;4926727;29;20733;-75
2022/06/16 08:27:11;;;;;;;6.80;3.50;;;26.30;99.90;;;;;;4930975;29;20261;-75
2022/06/16 08:29:41;;;;;;;3.83;3.33;;;26.20;99.90;;;;;;4932246;29;20202;-76
2022/06/16 08:32:10;;;;;;;6.30;3.50;;;26.10;99.90;;;;;;4923897;29;20226;-74
2022/06/16 08:34:38;;;;;;;5.00;3.60;;;25.80;99.90;;;;;;4928323;29;20260;-75
2022/06/16 08:37:05;;;;;;;7.75;3.60;;;25.60;99.90;;;;;;4933373;29;20203;-75
2022/06/16 08:39:32;;;;;;;4.97;3.92;;;25.70;99.90;;;;;;4934211;28;20267;-75
2022/06/16 08:42:10;;;;;;;6.32;3.72;;;25.80;99.90;;;;;;4927987;29;20335;-75
2022/06/16 08:44:57;;;;;;;5.25;3.60;;;26.00;99.90;;;;;;4930468;29;20337;-76
2022/06/16 08:47:43;;;;;;;7.50;3.83;;;26.00;99.90;;;;;;4928945;29;20202;-75
2022/06/16 08:50:25;;;;;;;5.15;3.65;;;25.80;99.90;;;;;;4936972;29;20667;-74
2022/06/16 08:53:10;;;;;;;6.97;4.13;;;25.70;99.90;;;;;;4929070;29;20203;-76
2022/06/16 08:55:55;;;;;;;5.50;3.85;;;25.80;99.90;;;;;;4931475;29;20197;-75
2022/06/16 08:58:31;;;;;;;7.88;4.07;;;25.80;99.90;;;;;;4927987;29;20195;-75
2022/06/16 09:01:10;;;;;;;7.07;4.00;;;25.80;99.90;;;;;;4936119;29;20218;-75
2022/06/16 09:04:08;;;;;;;6.22;3.85;;;25.80;99.90;;;;;;4939722;29;20236;-74
2022/06/16 09:07:00;;;;;;;4.25;3.40;;;25.80;99.90;;;;;;4931339;29;20258;-75
2022/06/16 09:12:52;;;;;;;5.03;3.75;;;25.90;99.90;;;;;;4940533;29;20226;-75
2022/06/16 09:15:27;;;;;;;4.75;3.25;;;25.90;99.90;;;;;;4937844;29;20195;-75
2022/06/16 09:18:46;;;;;;;7.68;3.83;;;26.10;99.90;;;;;;4932156;29;20627;-75
2022/06/16 09:21:35;;;;;;;4.63;3.70;;;25.90;99.90;;;;;;4884773;29;20225;-76
2022/06/16 09:24:30;;;;;;;7.78;3.78;;;26.10;99.90;;;;;;4931406;29;20233;-75
2022/06/16 09:27:14;;;;;;;6.22;4.00;;;26.30;99.90;;;;;;4937258;29;20254;-75
2022/06/16 09:29:43;;;;;;;5.35;3.55;;;26.60;99.90;;;;;;4931379;29;20217;-75
2022/06/16 09:32:16;;;;;;;7.22;4.68;;;26.50;99.90;;;;;;4926631;29;20215;-75
2022/06/16 09:35:17;;;;;;;4.60;3.65;;;26.50;99.90;;;;;;4930848;29;20217;-76
2022/06/16 09:37:58;;;;;;;5.05;3.85;;;26.60;99.90;;;;;;4928854;29;20585;-75
2022/06/16 09:40:46;;;;;;;5.32;3.75;;;26.90;99.90;;;;;;4928359;29;20199;-74
2022/06/16 09:43:35;;;;;;;4.88;3.65;;;26.80;99.90;;;;;;4930882;29;20202;-75
2022/06/16 09:46:11;;;;;;;10.18;4.25;;;26.90;99.90;;;;;;4920139;29;20206;-76
2022/06/16 09:49:10;;;;;;;4.53;3.60;;;27.00;99.90;;;;;;4929715;29;20198;-75
2022/06/16 09:51:41;;;;;;;4.53;3.72;;;27.00;99.90;;;;;;4928597;29;20215;-74
2022/06/16 09:54:42;;;;;;;4.72;3.33;;;26.80;99.90;;;;;;4935595;29;20214;-76
2022/06/16 09:57:26;;;;;;;7.00;3.90;;;26.80;99.90;;;;;;4931330;29;20198;-76
2022/06/16 10:00:00;;;;;;;6.18;3.63;;;27.00;99.90;;;;;;4933224;29;20199;-76
2022/06/16 10:02:41;;;;;;;5.22;3.80;;;27.20;99.90;;;;;;4932134;29;20257;-76
2022/06/16 10:05:32;;;;;;;4.55;3.60;;;27.20;99.90;;;;;;4931792;29;20229;-76
2022/06/16 10:08:09;;;;;;;4.80;3.53;;;27.40;99.90;;;;;;4941486;28;20222;-76
2022/06/16 10:10:58;;;;;;;3.70;3.40;;;27.40;99.60;;;;;;4931595;28;20200;-74
2022/06/16 10:13:53;;;;;;;3.55;3.25;;;27.30;99.90;;;;;;4931970;29;20195;-76
2022/06/16 10:16:29;;;;;;;6.20;3.45;;;27.40;99.90;;;;;;4920076;29;20606;-74
2022/06/16 10:18:56;;;;;;;4.47;3.40;;;27.40;99.90;;;;;;4928816;29;20206;-75
2022/06/16 10:21:26;;;;;;;4.93;3.30;;;27.50;99.90;;;;;;4932443;29;20222;-75
2022/06/16 10:23:57;;;;;;;5.95;3.58;;;27.70;99.90;;;;;;4936654;29;20288;-76
2022/06/16 10:26:24;;;;;;;5.85;3.28;;;27.80;99.90;;;;;;4930283;29;20203;-76
2022/06/16 10:29:05;;;;;;;5.43;3.63;;;27.70;99.90;;;;;;4934413;29;20202;-77
2022/06/16 10:31:40;;;;;;;6.57;3.40;;;27.90;99.90;;;;;;4931475;29;20215;-76
2022/06/16 10:34:27;;;;;;;5.60;3.40;;;27.90;99.30;;;;;;4930555;29;20715;-75
2022/06/16 10:37:04;;;;;;;5.43;3.60;;;27.80;99.70;;;;;;4927461;29;20209;-76
2022/06/16 10:39:43;;;;;;;3.58;2.90;;;27.80;99.30;;;;;;4931539;29;20203;-76
2022/06/16 10:42:22;;;;;;;3.65;2.30;;;27.70;97.50;;;;;;4926117;29;20639;-75
2022/06/16 10:44:56;;;;;;;3.25;2.30;;;27.70;93.80;;;;;;4927476;29;20749;-77
2022/06/16 10:47:39;;;;;;;6.07;2.60;;;27.70;94.80;;;;;;4937403;29;20198;-75
2022/06/16 10:50:14;;;;;;;7.53;2.78;;;27.70;96.10;;;;;;4931437;29;20194;-76
2022/06/16 10:52:49;;;;;;;3.22;2.78;;;27.70;96.20;;;;;;4922270;28;20222;-76
2022/06/16 10:55:25;;;;;;;2.88;2.53;;;27.70;96.20;;;;;;4935132;29;20206;-75
2022/06/16 10:58:04;;;;;;;4.95;2.78;;;27.90;95.80;;;;;;4925362;29;20207;-75
2022/06/16 11:00:34;;;;;;;3.88;2.50;;;27.90;94.70;;;;;;4929976;29;20273;-77
2022/06/16 11:03:01;;;;;;;3.63;2.80;;;27.70;94.70;;;;;;4924364;29;20582;-76
2022/06/16 11:05:31;;;;;;;3.10;2.70;;;27.70;95.50;;;;;;4929127;29;20215;-74
2022/06/16 11:08:09;;;;;;;4.13;2.85;;;27.80;95.00;;;;;;4922933;29;20191;-72
2022/06/16 11:10:58;;;;;;;6.35;3.47;;;27.70;95.10;;;;;;4927350;29;20700;-73
2022/06/16 11:13:35;;;;;;;3.13;2.50;;;27.80;95.70;;;;;;4931011;29;20578;-74
2022/06/16 11:16:12;;;;;;;3.40;2.40;;;27.90;95.40;;;;;;4932310;29;20319;-75
2022/06/16 11:18:39;;;;;;;2.90;2.40;;;28.00;92.80;;;;;;4929157;29;20205;-75
2022/06/16 11:21:23;;;;;;;3.30;2.53;;;28.10;94.10;;;;;;4927362;29;20219;-74
2022/06/16 11:23:56;;;;;;;3.58;2.42;;;28.20;94.00;;;;;;4930873;29;20210;-75
2022/06/16 11:26:32;;;;;;;4.60;2.42;;;28.20;93.50;;;;;;4929630;29;20754;-76
2022/06/16 11:29:23;;;;;;;5.18;2.50;;;28.30;94.50;;;;;;4933536;29;20194;-75
2022/06/16 11:32:24;;;;;;;3.17;2.50;;;28.30;94.70;;;;;;4928909;29;20218;-76
2022/06/16 11:34:51;;;;;;;5.28;2.60;;;28.30;93.90;;;;;;4938006;29;20206;-75
2022/06/16 11:37:50;;;;;;;4.35;2.70;;;28.10;94.30;;;;;;4923574;29;20719;-75
2022/06/16 11:40:36;;;;;;;3.72;2.58;;;28.00;94.60;;;;;;4925865;29;20199;-73
2022/06/16 11:43:05;;;;;;;3.30;2.65;;;27.70;94.20;;;;;;4931669;29;20218;-74
2022/06/16 11:45:56;;;;;;;7.90;2.63;;;27.50;94.00;;;;;;4928389;29;20698;-74
2022/06/16 11:48:47;;;;;;;4.07;2.08;;;27.70;93.60;;;;;;4927456;29;20207;-76
2022/06/16 11:51:38;;;;;;;4.13;2.17;;;27.70;93.10;;;;;;4917959;29;20230;-76
2022/06/16 11:54:43;;;;;;;3.53;2.20;;;27.70;93.10;;;;;;4925795;29;20195;-76
2022/06/16 11:57:12;;;;;;;2.65;1.92;;;27.70;92.40;;;;;;4927662;29;20686;-76
2022/06/16 12:00:09;;;;;;;3.13;2.50;;;27.60;92.70;;;;;;4929626;29;20206;-76
2022/06/16 12:03:04;;;;;;;2.65;2.28;;;27.80;92.70;;;;;;4927097;29;20218;-76
2022/06/16 12:05:40;;;;;;;4.20;2.10;;;27.90;92.70;;;;;;4925101;29;20222;-76
2022/06/16 12:08:30;;;;;;;4.25;2.17;;;27.70;91.80;;;;;;4932769;29;20207;-77
2022/06/16 12:11:11;;;;;;;3.25;2.15;;;27.70;92.50;;;;;;4930295;29;20222;-76
2022/06/16 12:13:56;;;;;;;4.00;2.30;;;27.80;92.10;;;;;;4926402;29;20225;-76
2022/06/16 12:16:52;;;;;;;4.35;2.45;;;28.00;92.50;;;;;;4924216;29;20203;-75
2022/06/16 12:19:30;;;;;;;3.38;2.20;;;28.20;92.90;;;;;;4927076;29;20203;-76
2022/06/16 12:22:03;;;;;;;2.20;2.00;;;28.40;91.80;;;;;;4925211;29;20278;-76
2022/06/16 12:24:38;;;;;;;4.13;2.05;;;28.20;91.80;;;;;;4924744;29;20226;-77
2022/06/16 12:27:35;;;;;;;2.08;1.90;;;28.10;91.20;;;;;;4927589;29;20213;-76
2022/06/16 12:30:21;;;;;;;3.25;2.38;;;28.10;91.20;;;;;;4924952;29;20204;-76
2022/06/16 12:32:56;;;;;;;3.85;2.40;;;28.10;90.60;;;;;;4927276;29;20220;-74
2022/06/16 12:35:49;;;;;;;3.53;2.15;;;28.10;91.30;;;;;;4927812;29;20206;-75
2022/06/16 12:38:22;;;;;;;4.15;2.58;;;28.00;91.60;;;;;;4930648;29;20210;-75
2022/06/16 12:40:53;;;;;;;3.70;2.28;;;27.90;91.30;;;;;;4925192;29;20591;-75
2022/06/16 12:43:38;;;;;;;2.90;1.98;;;27.90;91.20;;;;;;4926648;29;20195;-76
2022/06/16 12:46:08;;;;;;;2.63;2.30;;;28.10;91.30;;;;;;4931938;29;20345;-75
2022/06/16 12:48:51;;;;;;;3.22;2.35;;;28.00;90.50;;;;;;4927948;29;20199;-74
2022/06/16 12:51:30;;;;;;;3.25;2.10;;;28.20;91.00;;;;;;4928564;29;20716;-75
2022/06/16 12:54:11;;;;;;;3.03;2.20;;;28.10;90.40;;;;;;4934845;29;20194;-72
2022/06/16 12:56:46;;;;;;;2.92;2.10;;;28.10;90.30;;;;;;4927120;29;20207;-73
2022/06/16 12:59:21;;;;;;;3.70;2.25;;;27.90;91.00;;;;;;4924908;29;20679;-73
2022/06/16 13:01:57;;;;;;;3.60;2.30;;;27.90;91.30;;;;;;4931967;29;20309;-73
2022/06/16 13:04:32;;;;;;;2.60;2.03;;;28.00;91.50;;;;;;4927815;29;20229;-73
2022/06/16 13:07:03;;;;;;;3.20;2.10;;;28.10;92.10;;;;;;4931449;29;20202;-73
2022/06/16 13:09:30;;;;;;;4.13;2.30;;;28.30;92.60;;;;;;4932278;29;20203;-74
2022/06/16 13:12:05;;;;;;;3.42;2.10;;;28.40;92.70;;;;;;4924097;29;20238;-75
2022/06/16 13:14:36;;;;;;;2.50;2.28;;;28.20;92.40;;;;;;4932048;29;20213;-73
2022/06/16 13:17:06;;;;;;;2.15;1.95;;;28.40;92.20;;;;;;4928943;29;20615;-73
2022/06/16 13:19:40;;;;;;;3.92;2.10;;;28.40;91.50;;;;;;4929439;29;20199;-74
2022/06/16 13:22:20;;;;;;;4.80;2.47;;;28.40;91.60;;;;;;4918628;29;20234;-75
2022/06/16 13:24:52;;;;;;;4.00;2.22;;;28.30;92.10;;;;;;4936050;29;20306;-73
2022/06/16 13:27:40;;;;;;;3.10;2.50;;;28.30;91.90;;;;;;4928847;29;20194;-72
2022/06/16 13:30:07;;;;;;;4.22;2.13;;;28.40;91.80;;;;;;4929977;29;20199;-73
2022/06/16 13:32:49;;;;;;;2.35;2.00;;;28.20;92.20;;;;;;4931688;29;20210;-74
2022/06/16 13:35:15;;;;;;;4.40;2.22;;;28.20;92.60;;;;;;4927550;29;20202;-73